Time;durP1;ratioP1;P1;durP2;ratioP2;P2;SDS_P1;SDS_P2;PMS_P1;PMS_P2;Temp;Humidity;BMP_temperature;BMP_pressure;BME280_temperature;BME280_humidity;BME280_pressure;Samples;Min_cycle;Max_cycle;Signal;HPM_P1;HPM_P2
2021/12/14 00:01:43;;;;;;;13.27;7.70;;;21.60;54.10;;;;;;5187458;28;20053;-61
2021/12/14 00:04:21;;;;;;;15.35;7.90;;;21.60;53.00;;;;;;5181985;28;20052;-60
2021/12/14 00:06:55;;;;;;;15.20;7.25;;;21.60;53.40;;;;;;5187731;28;20060;-62
2021/12/14 00:09:32;;;;;;;15.98;6.88;;;21.60;53.40;;;;;;5184010;28;20045;-61
2021/12/14 00:12:36;;;;;;;17.40;7.47;;;21.60;53.40;;;;;;5184340;28;20045;-61
2021/12/14 00:15:14;;;;;;;14.07;7.25;;;21.60;53.40;;;;;;5186374;28;20040;-61
2021/12/14 00:17:51;;;;;;;15.30;7.72;;;21.60;53.40;;;;;;5184108;28;20056;-61
2021/12/14 00:20:59;;;;;;;14.15;7.10;;;21.60;53.40;;;;;;5187572;28;20044;-61
2021/12/14 00:26:25;;;;;;;13.80;7.33;;;21.60;54.30;;;;;;5189555;28;20727;-61
2021/12/14 00:28:57;;;;;;;14.90;7.22;;;21.60;53.60;;;;;;5182049;28;20711;-62
2021/12/14 00:31:30;;;;;;;14.35;6.80;;;21.60;53.60;;;;;;5180774;28;20067;-61
2021/12/14 00:34:05;;;;;;;12.75;7.10;;;21.60;53.50;;;;;;5191434;28;20041;-60
2021/12/14 00:36:38;;;;;;;11.80;6.45;;;21.60;53.50;;;;;;5186532;28;20641;-62
2021/12/14 00:39:10;;;;;;;17.60;7.53;;;21.60;53.70;;;;;;5183694;28;20045;-61
2021/12/14 00:41:44;;;;;;;11.07;6.10;;;21.60;53.50;;;;;;5185746;28;20746;-61
2021/12/14 00:44:16;;;;;;;13.13;7.07;;;21.60;53.50;;;;;;5187779;28;20050;-61
2021/12/14 00:46:51;;;;;;;12.18;6.10;;;21.60;53.50;;;;;;5169632;28;20477;-62
2021/12/14 00:49:24;;;;;;;10.93;6.75;;;21.60;54.20;;;;;;5165728;28;20038;-61
2021/12/14 00:51:56;;;;;;;9.63;5.95;;;21.60;53.50;;;;;;5188016;28;20033;-60
2021/12/14 00:54:29;;;;;;;15.93;7.10;;;21.60;53.40;;;;;;5186894;28;20049;-61
2021/12/14 00:57:02;;;;;;;9.23;5.72;;;21.60;53.50;;;;;;5190285;28;20520;-59
2021/12/14 00:59:34;;;;;;;13.35;6.32;;;21.60;53.50;;;;;;5187422;28;20045;-60
2021/12/14 01:02:14;;;;;;;9.70;6.00;;;21.60;53.50;;;;;;5156609;28;20056;-59
2021/12/14 01:04:55;;;;;;;9.48;5.72;;;21.60;53.50;;;;;;5187332;28;20040;-60
2021/12/14 01:07:30;;;;;;;10.70;5.82;;;21.60;53.40;;;;;;5180218;28;20034;-61
2021/12/14 01:10:09;;;;;;;12.02;6.15;;;21.60;53.40;;;;;;5178397;28;20047;-59
2021/12/14 01:12:49;;;;;;;13.82;5.68;;;21.60;53.40;;;;;;5182694;28;20065;-59
2021/12/14 01:16:00;;;;;;;8.88;4.90;;;21.60;53.40;;;;;;5164230;28;20067;-59
2021/12/14 01:21:39;;;;;;;9.85;5.53;;;21.60;53.40;;;;;;5162342;28;20408;-59
2021/12/14 01:24:33;;;;;;;10.80;5.28;;;21.60;53.40;;;;;;5184478;28;20398;-60
2021/12/14 01:27:10;;;;;;;9.10;5.43;;;21.60;53.40;;;;;;5182043;28;20048;-61
2021/12/14 01:29:45;;;;;;;9.38;5.30;;;21.60;53.40;;;;;;5167658;28;20049;-61
2021/12/14 01:32:20;;;;;;;9.30;4.63;;;21.60;53.30;;;;;;5163536;28;20789;-59
2021/12/14 01:34:53;;;;;;;7.70;5.00;;;21.60;53.30;;;;;;5184457;28;20447;-61
2021/12/14 01:37:29;;;;;;;8.70;5.45;;;21.60;53.30;;;;;;5180497;28;21370;-60
2021/12/14 01:40:05;;;;;;;8.98;5.03;;;21.60;53.30;;;;;;5167068;28;20049;-59
2021/12/14 01:42:41;;;;;;;10.23;5.20;;;21.60;53.30;;;;;;5183631;28;20048;-61
2021/12/14 01:45:21;;;;;;;7.57;4.50;;;21.60;53.30;;;;;;5179502;28;20052;-62
2021/12/14 01:47:58;;;;;;;8.18;4.65;;;21.60;53.30;;;;;;5183719;28;20036;-61
2021/12/14 01:51:06;;;;;;;8.10;4.75;;;21.60;53.20;;;;;;5169125;28;20052;-60
2021/12/14 01:53:51;;;;;;;9.02;4.43;;;21.60;53.20;;;;;;5184948;28;20056;-60
2021/12/14 01:56:27;;;;;;;8.38;4.63;;;21.60;53.20;;;;;;5172334;28;20036;-60
2021/12/14 01:59:07;;;;;;;10.30;4.80;;;21.60;53.20;;;;;;5164512;28;20053;-59
2021/12/14 02:01:56;;;;;;;6.85;4.15;;;21.60;53.30;;;;;;5167700;28;20057;-59
2021/12/14 02:04:29;;;;;;;7.93;4.45;;;21.60;53.30;;;;;;5172725;28;20033;-61
2021/12/14 02:07:05;;;;;;;8.30;4.05;;;21.60;53.30;;;;;;5169224;28;20045;-59
2021/12/14 02:09:39;;;;;;;5.47;3.58;;;21.60;53.30;;;;;;5162894;28;20045;-62
2021/12/14 02:12:21;;;;;;;7.15;4.45;;;21.60;53.30;;;;;;5156120;28;20048;-61
2021/12/14 02:15:07;;;;;;;9.82;4.15;;;21.60;53.20;;;;;;5172342;28;20072;-59
2021/12/14 02:17:40;;;;;;;6.88;4.25;;;21.60;53.30;;;;;;5174534;28;20056;-61
2021/12/14 02:20:16;;;;;;;7.88;4.72;;;21.60;53.40;;;;;;5166024;28;20142;-59
2021/12/14 02:22:49;;;;;;;5.75;3.72;;;21.60;53.30;;;;;;5176205;28;20044;-61
2021/12/14 02:25:22;;;;;;;;;;;21.60;54.00;;;;;;5185140;28;20052;-60
2021/12/14 02:27:59;;;;;;;6.10;4.00;;;21.50;53.30;;;;;;5172001;28;19929;-59
2021/12/14 02:30:33;;;;;;;7.75;4.28;;;21.50;53.30;;;;;;5181269;28;20045;-61
2021/12/14 02:33:13;;;;;;;5.70;3.63;;;21.50;53.30;;;;;;5184444;28;20045;-59
2021/12/14 02:35:47;;;;;;;5.85;3.70;;;21.60;54.00;;;;;;5174355;28;20048;-59
2021/12/14 02:38:20;;;;;;;8.38;3.78;;;21.60;53.20;;;;;;5169666;28;20048;-59
2021/12/14 02:40:57;;;;;;;6.57;3.63;;;21.60;53.20;;;;;;5190102;28;20037;-59
2021/12/14 02:43:39;;;;;;;7.47;3.63;;;21.60;53.20;;;;;;5169074;28;20045;-61
2021/12/14 02:46:23;;;;;;;6.68;3.15;;;21.60;53.10;;;;;;5171528;28;20033;-58
2021/12/14 02:48:59;;;;;;;8.40;3.63;;;21.60;53.10;;;;;;5172281;28;20045;-60
2021/12/14 02:51:36;;;;;;;5.65;3.45;;;21.60;53.00;;;;;;5185160;28;20400;-60
2021/12/14 02:54:12;;;;;;;5.35;3.60;;;21.60;53.00;;;;;;5190500;28;20519;-61
2021/12/14 02:56:47;;;;;;;4.68;3.05;;;21.60;52.90;;;;;;5186855;28;20061;-60
2021/12/14 02:59:25;;;;;;;6.90;3.38;;;21.60;53.00;;;;;;5173422;28;20059;-61
2021/12/14 03:02:04;;;;;;;5.38;2.97;;;21.60;52.90;;;;;;5180378;28;20084;-61
2021/12/14 03:04:45;;;;;;;5.50;3.10;;;21.60;53.50;;;;;;5172941;28;20036;-60
2021/12/14 03:07:22;;;;;;;4.45;3.45;;;21.60;52.80;;;;;;5157547;28;20052;-60
2021/12/14 03:10:05;;;;;;;6.20;3.20;;;21.60;52.80;;;;;;5184115;28;20072;-61
2021/12/14 03:12:43;;;;;;;4.83;3.00;;;21.60;52.80;;;;;;5180497;28;20049;-61
2021/12/14 03:15:46;;;;;;;6.60;2.95;;;21.60;52.70;;;;;;5183525;28;20049;-61
2021/12/14 03:18:33;;;;;;;5.55;3.13;;;21.60;52.70;;;;;;5178205;28;21366;-61
2021/12/14 03:21:09;;;;;;;4.82;2.80;;;21.60;52.70;;;;;;5185637;28;20397;-60
2021/12/14 03:23:58;;;;;;;5.97;2.95;;;21.60;52.80;;;;;;5185566;28;21137;-61
2021/12/14 03:26:32;;;;;;;8.15;2.95;;;21.60;52.70;;;;;;5183812;28;20048;-61
2021/12/14 03:29:09;;;;;;;5.13;3.00;;;21.60;52.70;;;;;;5189400;28;20926;-61
2021/12/14 03:31:45;;;;;;;4.72;2.75;;;21.60;52.80;;;;;;5184175;28;20049;-61
2021/12/14 03:34:27;;;;;;;5.43;2.97;;;21.60;52.70;;;;;;5189978;28;20052;-60
2021/12/14 03:37:15;;;;;;;10.63;3.50;;;21.60;52.70;;;;;;5187203;28;20052;-59
2021/12/14 03:40:01;;;;;;;4.60;2.30;;;21.60;52.70;;;;;;5171915;28;20063;-58
2021/12/14 03:42:40;;;;;;;4.60;3.03;;;21.50;52.60;;;;;;5185910;28;20059;-60
2021/12/14 03:45:20;;;;;;;4.70;2.70;;;21.60;52.70;;;;;;5160641;28;20049;-59
2021/12/14 03:47:57;;;;;;;4.65;2.75;;;21.50;52.60;;;;;;5171275;28;20756;-58
2021/12/14 03:50:40;;;;;;;4.47;2.80;;;21.60;52.60;;;;;;5182247;28;20051;-61
2021/12/14 03:53:13;;;;;;;6.15;2.63;;;21.60;52.60;;;;;;5164705;28;20053;-59
2021/12/14 03:55:53;;;;;;;3.70;2.40;;;21.50;52.50;;;;;;5186669;28;20342;-60
2021/12/14 03:58:36;;;;;;;5.50;2.72;;;21.50;52.50;;;;;;5180934;28;20419;-60
2021/12/14 04:01:15;;;;;;;3.92;2.10;;;21.60;52.50;;;;;;5175735;28;20052;-59
2021/12/14 04:04:01;;;;;;;3.92;2.35;;;21.50;52.50;;;;;;5180519;28;20686;-61
2021/12/14 04:06:39;;;;;;;4.90;2.17;;;21.50;52.50;;;;;;5170947;28;20464;-62
2021/12/14 04:09:14;;;;;;;2.85;2.20;;;21.50;52.50;;;;;;5168800;28;20997;-61
2021/12/14 04:11:47;;;;;;;3.88;2.80;;;21.50;52.50;;;;;;5184197;28;20045;-59
2021/12/14 04:14:20;;;;;;;;;;;21.50;52.40;;;;;;5183918;28;21518;-60
2021/12/14 04:16:52;;;;;;;5.45;2.28;;;21.40;52.40;;;;;;5179523;28;19932;-61
2021/12/14 04:19:29;;;;;;;5.03;2.42;;;21.50;52.60;;;;;;5166460;28;20063;-62
2021/12/14 04:22:07;;;;;;;3.92;2.30;;;21.50;52.50;;;;;;5183794;28;20045;-59
2021/12/14 04:24:41;;;;;;;4.30;2.45;;;21.50;52.50;;;;;;5164850;28;20667;-58
2021/12/14 04:27:22;;;;;;;4.80;2.25;;;21.50;52.50;;;;;;5161934;28;20094;-60
2021/12/14 04:29:56;;;;;;;4.63;2.10;;;21.50;52.40;;;;;;5166531;28;21659;-60
2021/12/14 04:32:29;;;;;;;5.80;2.38;;;21.50;52.50;;;;;;5164321;28;20059;-62
2021/12/14 04:35:05;;;;;;;5.35;1.98;;;21.50;52.70;;;;;;5166221;28;20053;-61
2021/12/14 04:37:40;;;;;;;3.85;1.92;;;21.50;52.40;;;;;;5167121;28;20053;-61
2021/12/14 04:51:53;;;;;;;4.47;2.10;;;21.50;52.40;;;;;;5182056;28;20496;-59
2021/12/14 04:52:11;;;;;;;5.30;2.13;;;21.50;52.30;;;;;;5170957;28;20041;-59
2021/12/14 04:54:46;;;;;;;3.67;2.10;;;21.50;52.30;;;;;;5176406;28;20044;-60
2021/12/14 04:57:44;;;;;;;6.07;1.90;;;21.50;52.30;;;;;;5172470;28;20052;-60
2021/12/14 05:00:21;;;;;;;3.95;1.92;;;21.50;52.30;;;;;;5133862;28;20084;-62
2021/12/14 05:03:18;;;;;;;2.35;1.60;;;21.50;52.30;;;;;;5180126;28;20547;-61
2021/12/14 05:06:08;;;;;;;3.65;1.58;;;21.50;52.40;;;;;;5172528;28;20045;-61
2021/12/14 05:11:21;;;;;;;2.60;1.60;;;21.40;52.40;;;;;;5178672;28;20045;-60
2021/12/14 05:14:03;;;;;;;3.05;1.85;;;21.50;52.50;;;;;;5156046;28;20041;-58
2021/12/14 05:16:43;;;;;;;2.00;1.60;;;21.50;52.50;;;;;;5185230;28;20054;-60
2021/12/14 05:19:37;;;;;;;4.10;2.00;;;21.50;52.50;;;;;;5160614;28;20428;-59
2021/12/14 05:22:16;;;;;;;2.13;1.65;;;21.50;52.60;;;;;;5186170;28;20037;-59
2021/12/14 05:25:00;;;;;;;2.97;1.60;;;21.50;52.60;;;;;;5179016;28;20064;-58
2021/12/14 05:27:38;;;;;;;3.63;1.58;;;21.40;52.60;;;;;;5184497;28;20041;-60
2021/12/14 05:30:15;;;;;;;1.63;1.50;;;21.50;52.60;;;;;;5166790;28;20049;-58
2021/12/14 05:33:08;;;;;;;4.38;1.38;;;21.50;52.60;;;;;;5172269;28;20045;-58
2021/12/14 05:35:45;;;;;;;2.35;1.50;;;21.50;52.70;;;;;;5185875;28;20515;-62
2021/12/14 05:38:23;;;;;;;3.85;1.90;;;21.50;52.80;;;;;;5182252;28;20053;-60
2021/12/14 05:44:23;;;;;;;3.72;1.85;;;21.50;53.00;;;;;;5120450;28;20061;-60
2021/12/14 05:47:05;;;;;;;5.70;1.75;;;21.50;53.00;;;;;;5175966;28;20041;-57
2021/12/14 05:49:49;;;;;;;2.78;1.58;;;21.50;53.10;;;;;;5161161;28;20064;-57
2021/12/14 05:52:27;;;;;;;5.57;2.30;;;21.50;53.10;;;;;;5174893;28;20041;-59
2021/12/14 05:55:06;;;;;;;5.20;1.92;;;21.50;53.10;;;;;;5181634;28;20048;-56
2021/12/14 05:57:39;;;;;;;3.28;1.73;;;21.50;53.10;;;;;;5175822;28;20045;-59
2021/12/14 06:00:15;;;;;;;7.13;1.90;;;21.50;53.30;;;;;;5174491;28;20053;-59
2021/12/14 06:02:59;;;;;;;9.02;2.35;;;21.50;53.50;;;;;;5153099;28;20485;-61
2021/12/14 06:05:32;;;;;;;9.88;2.20;;;21.50;53.50;;;;;;5179281;28;20038;-60
2021/12/14 06:08:05;;;;;;;12.43;2.13;;;21.50;53.50;;;;;;5172841;28;20060;-60
2021/12/14 06:10:40;;;;;;;12.13;2.28;;;21.50;53.70;;;;;;5185390;28;20049;-60
2021/12/14 06:13:16;;;;;;;8.30;2.20;;;21.50;53.70;;;;;;5177115;28;20037;-60
2021/12/14 06:15:49;;;;;;;11.85;2.38;;;21.60;53.70;;;;;;5177209;28;20041;-58
2021/12/14 06:18:25;;;;;;;9.10;2.15;;;21.60;53.60;;;;;;5172048;28;20052;-59
2021/12/14 06:21:31;;;;;;;10.02;2.05;;;21.60;53.40;;;;;;5165885;28;20061;-60
2021/12/14 06:24:07;;;;;;;9.13;1.80;;;21.60;53.40;;;;;;5169036;28;20045;-60
2021/12/14 06:26:51;;;;;;;9.70;2.15;;;21.60;53.30;;;;;;5170277;28;20033;-58
2021/12/14 06:29:30;;;;;;;8.02;2.10;;;21.60;53.30;;;;;;5176428;28;20045;-60
2021/12/14 06:32:38;;;;;;;5.10;1.98;;;21.60;53.20;;;;;;5183121;28;20078;-62
2021/12/14 06:35:17;;;;;;;7.85;1.92;;;21.60;53.10;;;;;;5147495;28;20076;-59
2021/12/14 06:40:41;;;;;;;;;;;21.60;53.00;;;;;;5178011;28;20061;-59
2021/12/14 06:43:31;;;;;;;3.53;2.08;;;21.50;52.90;;;;;;5177590;28;19925;-60
2021/12/14 06:46:15;;;;;;;7.60;1.50;;;21.60;53.00;;;;;;5187224;28;20056;-59
2021/12/14 06:48:54;;;;;;;2.83;1.55;;;21.60;52.80;;;;;;5198099;28;20045;-59
2021/12/14 06:51:31;;;;;;;6.45;2.00;;;21.60;52.70;;;;;;5204399;28;20045;-59
2021/12/14 06:54:22;;;;;;;6.65;1.90;;;21.60;52.50;;;;;;5185003;28;20068;-59
2021/12/14 06:57:00;;;;;;;6.65;1.90;;;21.60;52.40;;;;;;5180855;28;20044;-59
2021/12/14 06:59:57;;;;;;;3.72;1.65;;;21.60;52.30;;;;;;5194259;28;20700;-60
2021/12/14 07:02:35;;;;;;;7.93;1.67;;;21.70;52.30;;;;;;5180990;28;20048;-60
2021/12/14 07:05:21;;;;;;;8.77;1.92;;;21.60;52.10;;;;;;5187162;28;20041;-59
2021/12/14 07:08:06;;;;;;;4.35;1.70;;;21.70;52.10;;;;;;5187640;28;20037;-58
2021/12/14 07:10:41;;;;;;;3.10;1.45;;;21.60;52.00;;;;;;5203540;28;20044;-59
2021/12/14 07:13:39;;;;;;;4.93;1.52;;;21.70;52.00;;;;;;5191762;28;20052;-62
2021/12/14 07:16:30;;;;;;;4.82;1.75;;;21.70;51.90;;;;;;5201441;28;20488;-61
2021/12/14 07:19:05;;;;;;;4.93;1.52;;;21.70;51.90;;;;;;5196425;28;20053;-61
2021/12/14 07:21:49;;;;;;;2.13;1.30;;;21.70;51.90;;;;;;5193565;28;20053;-63
2021/12/14 07:24:21;;;;;;;2.95;1.52;;;21.70;51.80;;;;;;5206608;28;20041;-62
2021/12/14 07:27:21;;;;;;;6.63;1.30;;;21.70;51.80;;;;;;5203367;28;20037;-62
2021/12/14 07:30:12;;;;;;;3.22;1.30;;;21.70;51.70;;;;;;5202902;28;20218;-62
2021/12/14 07:32:50;;;;;;;2.53;1.40;;;21.70;51.70;;;;;;5205485;28;20041;-62
2021/12/14 07:35:45;;;;;;;4.75;1.35;;;21.70;51.80;;;;;;5183397;28;20044;-62
2021/12/14 07:38:35;;;;;;;2.42;1.50;;;21.70;51.80;;;;;;5192994;28;20049;-62
2021/12/14 07:41:31;;;;;;;2.58;1.35;;;21.70;51.60;;;;;;5207746;28;21169;-62
2021/12/14 07:44:13;;;;;;;9.10;2.25;;;21.70;51.60;;;;;;5203080;28;20041;-61
2021/12/14 07:46:49;;;;;;;2.40;1.77;;;21.70;51.60;;;;;;5203662;28;20041;-62
2021/12/14 07:49:34;;;;;;;4.53;1.55;;;21.70;51.60;;;;;;5202480;28;20048;-62
2021/12/14 07:52:11;;;;;;;7.82;1.25;;;21.70;51.60;;;;;;5202517;28;20057;-61
2021/12/14 07:54:49;;;;;;;2.60;1.40;;;21.80;51.60;;;;;;5206279;28;20053;-61
2021/12/14 07:57:25;;;;;;;1.92;1.10;;;21.80;51.70;;;;;;5199276;28;20099;-61
2021/12/14 08:00:24;;;;;;;3.47;1.20;;;21.70;51.60;;;;;;5203463;28;20496;-61
2021/12/14 08:03:03;;;;;;;3.22;1.27;;;21.70;51.50;;;;;;5203491;28;20052;-62
2021/12/14 08:05:44;;;;;;;2.03;1.15;;;21.70;51.60;;;;;;5197274;28;20040;-60
2021/12/14 08:08:40;;;;;;;2.72;1.10;;;21.80;51.60;;;;;;5201949;28;20045;-63
2021/12/14 08:14:23;;;;;;;2.70;1.60;;;21.70;51.50;;;;;;5206887;28;20511;-62
2021/12/14 08:17:05;;;;;;;2.75;1.33;;;21.80;51.50;;;;;;5202997;28;20041;-62
2021/12/14 08:19:42;;;;;;;2.80;1.10;;;21.80;51.60;;;;;;5199027;28;20068;-61
2021/12/14 08:22:29;;;;;;;3.53;1.23;;;21.80;51.50;;;;;;5200846;28;20057;-63
2021/12/14 08:25:05;;;;;;;5.50;1.73;;;21.80;51.50;;;;;;5197540;28;20045;-61
2021/12/14 08:27:38;;;;;;;2.95;1.40;;;21.80;51.50;;;;;;5204715;28;20041;-62
2021/12/14 08:30:15;;;;;;;2.03;1.17;;;21.80;51.50;;;;;;5201407;28;20041;-63
2021/12/14 08:32:48;;;;;;;2.63;1.30;;;21.80;51.50;;;;;;5198174;28;20041;-62
2021/12/14 08:35:21;;;;;;;;;;;21.80;51.50;;;;;;5202172;28;20587;-61
2021/12/14 08:37:58;;;;;;;1.35;1.02;;;21.80;51.50;;;;;;5202528;28;20395;-63
2021/12/14 08:40:39;;;;;;;3.72;1.13;;;21.80;51.50;;;;;;5202700;28;20041;-63
2021/12/14 08:43:23;;;;;;;2.88;1.60;;;21.80;51.50;;;;;;5198677;28;20496;-62
2021/12/14 08:46:04;;;;;;;2.92;1.30;;;21.80;51.50;;;;;;5198412;28;20045;-62
2021/12/14 08:48:42;;;;;;;2.72;1.10;;;21.80;51.40;;;;;;5198879;28;20045;-62
2021/12/14 08:51:25;;;;;;;2.38;1.40;;;21.80;51.40;;;;;;5198996;28;20057;-59
2021/12/14 08:54:09;;;;;;;2.33;0.98;;;21.80;51.40;;;;;;5200027;28;20060;-62
2021/12/14 08:57:05;;;;;;;2.28;1.20;;;21.80;51.40;;;;;;5198888;28;20041;-62
2021/12/14 08:59:40;;;;;;;2.15;1.30;;;21.80;51.40;;;;;;5203315;28;20381;-62
2021/12/14 09:02:15;;;;;;;1.60;1.05;;;21.80;51.40;;;;;;5200113;28;20416;-61
2021/12/14 09:04:54;;;;;;;2.45;1.30;;;21.80;51.40;;;;;;5199277;28;20049;-61
2021/12/14 09:07:30;;;;;;;1.88;1.13;;;21.90;51.40;;;;;;5200634;28;20047;-61
2021/12/14 09:10:09;;;;;;;4.00;1.45;;;21.80;51.30;;;;;;5203079;28;20045;-63
2021/12/14 09:12:45;;;;;;;1.08;0.98;;;21.90;51.30;;;;;;5204715;28;20055;-62
2021/12/14 09:15:26;;;;;;;3.20;1.83;;;21.90;51.40;;;;;;5197125;28;20508;-60
2021/12/14 09:17:59;;;;;;;1.73;1.15;;;21.90;51.30;;;;;;5203964;28;20493;-63
2021/12/14 09:20:36;;;;;;;4.65;1.10;;;21.90;51.40;;;;;;5199704;28;20045;-62
2021/12/14 09:23:14;;;;;;;5.05;1.00;;;21.90;51.30;;;;;;5198456;28;20440;-60
2021/12/14 09:25:48;;;;;;;2.03;1.35;;;21.90;51.30;;;;;;5201625;28;20132;-62
2021/12/14 09:28:21;;;;;;;1.73;1.10;;;21.90;51.30;;;;;;5188656;28;20136;-62
2021/12/14 09:30:59;;;;;;;1.98;1.00;;;21.90;51.30;;;;;;5194063;28;20037;-60
2021/12/14 09:33:31;;;;;;;2.10;1.38;;;21.90;51.30;;;;;;5187321;28;20041;-61
2021/12/14 09:36:11;;;;;;;1.70;1.10;;;21.90;51.30;;;;;;4491511;28;9999966;-61
2021/12/14 09:38:51;;;;;;;2.10;1.13;;;21.90;51.30;;;;;;5194048;28;20040;-64
2021/12/14 09:41:31;;;;;;;1.55;1.02;;;21.90;51.20;;;;;;5198981;28;20051;-63
2021/12/14 09:44:09;;;;;;;2.38;1.10;;;21.90;51.20;;;;;;5194015;28;20048;-63
2021/12/14 09:46:41;;;;;;;1.92;1.13;;;21.90;51.20;;;;;;5194187;28;20056;-61
2021/12/14 09:49:15;;;;;;;1.88;1.20;;;21.90;51.30;;;;;;5194637;28;21019;-63
2021/12/14 09:51:55;;;;;;;2.38;1.60;;;21.90;51.20;;;;;;5199995;28;20257;-61
2021/12/14 09:54:30;;;;;;;1.73;1.20;;;21.90;51.20;;;;;;5195661;28;20041;-61
2021/12/14 09:57:07;;;;;;;1.38;1.02;;;22.00;51.30;;;;;;5188550;28;20076;-62
2021/12/14 09:59:40;;;;;;;1.88;1.30;;;22.00;51.30;;;;;;5190028;28;20049;-60
2021/12/14 10:02:23;;;;;;;2.85;1.40;;;21.90;51.20;;;;;;5190418;28;20489;-62
2021/12/14 10:05:00;;;;;;;2.33;1.50;;;22.00;51.30;;;;;;5192181;28;20045;-62
2021/12/14 10:07:33;;;;;;;2.33;0.90;;;21.90;51.20;;;;;;5196220;28;20040;-60
2021/12/14 10:10:13;;;;;;;2.42;0.93;;;21.90;51.30;;;;;;5196492;28;20048;-62
2021/12/14 10:12:51;;;;;;;1.50;1.00;;;22.00;51.30;;;;;;5197138;28;20049;-62
2021/12/14 10:15:36;;;;;;;2.17;1.30;;;22.00;51.30;;;;;;5197884;28;20087;-63
2021/12/14 10:18:12;;;;;;;4.80;1.30;;;22.00;51.30;;;;;;5195265;28;20063;-61
2021/12/14 10:21:01;;;;;;;1.40;1.20;;;22.00;51.30;;;;;;5194883;28;20052;-62
2021/12/14 10:23:35;;;;;;;2.15;1.23;;;22.00;51.30;;;;;;5193480;28;20496;-63
2021/12/14 10:26:09;;;;;;;2.65;1.00;;;22.00;51.30;;;;;;5173510;28;20048;-62
2021/12/14 10:28:45;;;;;;;1.52;1.10;;;22.00;51.30;;;;;;5197170;28;20532;-63
2021/12/14 10:31:36;;;;;;;2.83;1.60;;;22.00;51.30;;;;;;5189550;28;20687;-61
2021/12/14 10:34:14;;;;;;;1.40;1.13;;;22.00;51.40;;;;;;5187808;28;20049;-61
2021/12/14 10:36:52;;;;;;;1.80;1.02;;;22.00;51.30;;;;;;5194260;28;20532;-63
2021/12/14 10:39:39;;;;;;;2.28;1.25;;;22.00;51.40;;;;;;5194744;28;20435;-62
2021/12/14 10:45:08;;;;;;;1.38;1.15;;;22.00;51.40;;;;;;5193704;28;20049;-63
2021/12/14 10:47:41;;;;;;;1.90;1.08;;;22.00;51.30;;;;;;5203853;28;20056;-61
2021/12/14 10:50:18;;;;;;;1.25;0.88;;;22.00;51.30;;;;;;5192486;28;20053;-63
2021/12/14 10:52:51;;;;;;;2.53;1.40;;;22.00;51.30;;;;;;5183228;28;20048;-62
2021/12/14 10:55:36;;;;;;;1.98;1.27;;;22.10;51.30;;;;;;5196472;28;20615;-63
2021/12/14 10:58:11;;;;;;;1.30;1.20;;;22.10;51.30;;;;;;5187590;28;20049;-62
2021/12/14 11:00:51;;;;;;;1.65;1.05;;;22.10;51.30;;;;;;5193691;28;20067;-63
2021/12/14 11:03:35;;;;;;;3.88;1.10;;;22.10;51.30;;;;;;5197095;28;20069;-61
2021/12/14 11:06:12;;;;;;;1.98;1.35;;;22.10;51.30;;;;;;5193196;28;20567;-62
2021/12/14 11:09:38;;;;;;;2.28;1.42;;;22.10;51.30;;;;;;5197943;28;20636;-63
2021/12/14 11:11:59;;;;;;;1.60;1.20;;;22.10;51.30;;;;;;5195304;28;20481;-61
2021/12/14 11:14:35;;;;;;;1.48;0.80;;;22.10;51.30;;;;;;5193376;28;20049;-61
2021/12/14 11:20:10;;;;;;;2.35;1.13;;;22.10;51.30;;;;;;5197171;28;20049;-62
2021/12/14 11:22:46;;;;;;;3.10;1.33;;;22.10;51.40;;;;;;5201097;28;20052;-63
2021/12/14 11:26:14;;;;;;;2.65;1.20;;;22.10;51.30;;;;;;5199691;28;20049;-61
2021/12/14 11:28:53;;;;;;;2.40;1.05;;;22.10;51.30;;;;;;5190556;28;20041;-59
2021/12/14 11:31:34;;;;;;;1.73;1.17;;;22.10;51.30;;;;;;5194842;28;20056;-61
2021/12/14 11:34:10;;;;;;;1.83;1.08;;;22.10;51.30;;;;;;5192774;28;20061;-61
2021/12/14 11:36:54;;;;;;;1.75;1.00;;;22.10;51.30;;;;;;5191485;28;20571;-61
2021/12/14 11:39:30;;;;;;;5.60;1.08;;;22.10;51.30;;;;;;5191407;28;20053;-61
2021/12/14 11:42:19;;;;;;;4.32;1.23;;;22.10;51.30;;;;;;5183706;28;20053;-62
2021/12/14 11:45:01;;;;;;;1.50;1.20;;;22.10;51.30;;;;;;5191582;28;20053;-60
2021/12/14 11:47:42;;;;;;;2.63;1.00;;;22.10;51.30;;;;;;5189000;28;20049;-63
2021/12/14 11:50:38;;;;;;;1.98;0.95;;;22.10;51.30;;;;;;5194146;28;20045;-63
2021/12/14 11:53:18;;;;;;;3.60;1.20;;;22.10;51.30;;;;;;5188656;28;20041;-61
2021/12/14 11:56:12;;;;;;;2.42;1.00;;;22.10;51.30;;;;;;5189419;28;20042;-63
2021/12/14 11:58:54;;;;;;;2.70;1.13;;;22.10;51.20;;;;;;5190007;28;20048;-62
2021/12/14 12:01:38;;;;;;;2.25;1.30;;;22.10;51.20;;;;;;5187813;28;20068;-61
2021/12/14 12:04:21;;;;;;;1.75;1.23;;;22.10;51.20;;;;;;5190627;28;20048;-60
2021/12/14 12:09:44;;;;;;;2.42;1.20;;;22.10;51.20;;;;;;5185348;28;20049;-61
2021/12/14 12:12:27;;;;;;;4.72;1.52;;;22.10;51.10;;;;;;5189579;28;20053;-63
2021/12/14 12:15:18;;;;;;;2.45;1.30;;;22.10;51.10;;;;;;5189935;28;20049;-62
2021/12/14 12:17:59;;;;;;;4.45;1.40;;;22.10;51.10;;;;;;5171657;28;20056;-60
2021/12/14 12:20:42;;;;;;;3.05;1.30;;;22.10;51.20;;;;;;5171437;28;20049;-61
2021/12/14 12:23:18;;;;;;;1.88;1.27;;;22.10;51.20;;;;;;5177457;28;20059;-62
2021/12/14 12:25:59;;;;;;;1.25;1.08;;;22.10;51.20;;;;;;5159007;28;22441;-60
2021/12/14 12:28:39;;;;;;;1.38;1.20;;;22.10;51.30;;;;;;5178173;28;20044;-61
2021/12/14 12:31:19;;;;;;;2.25;1.30;;;22.10;51.30;;;;;;5179825;28;20040;-60
2021/12/14 12:33:54;;;;;;;2.15;1.10;;;22.10;51.40;;;;;;5178765;28;20053;-61
2021/12/14 12:36:38;;;;;;;2.55;1.48;;;22.10;51.50;;;;;;5171368;28;20053;-61
2021/12/14 12:39:16;;;;;;;;;;;22.10;51.60;;;;;;5184202;28;20060;-62
2021/12/14 12:41:58;;;;;;;2.20;1.33;;;22.00;51.80;;;;;;5178283;28;19925;-61
2021/12/14 12:44:32;;;;;;;3.63;1.33;;;22.10;52.00;;;;;;5179705;28;20154;-61
2021/12/14 12:47:14;;;;;;;4.05;1.40;;;22.10;51.90;;;;;;5182219;28;20054;-58
2021/12/14 12:49:58;;;;;;;2.17;1.85;;;22.10;52.00;;;;;;5179209;28;20347;-62
2021/12/14 12:52:31;;;;;;;;;;;22.10;51.90;;;;;;5159896;28;20082;-62
2021/12/14 12:55:05;;;;;;;6.38;2.55;;;22.10;52.90;;;;;;5142914;28;20379;-65
2021/12/14 12:57:55;;;;;;;7.70;2.17;;;22.10;52.00;;;;;;4801320;28;10001078;-60
2021/12/14 13:00:37;;;;;;;9.18;2.03;;;22.10;52.00;;;;;;5139228;28;20641;-63
2021/12/14 13:03:37;;;;;;;8.02;1.67;;;22.10;52.30;;;;;;5142231;28;20053;-62
2021/12/14 13:06:19;;;;;;;13.10;2.25;;;22.10;52.30;;;;;;5119427;28;20520;-65
2021/12/14 13:08:57;;;;;;;17.35;2.80;;;22.10;52.30;;;;;;5153182;28;20041;-63
2021/12/14 13:11:36;;;;;;;6.30;2.05;;;22.10;52.40;;;;;;5154839;28;20932;-64
2021/12/14 13:14:12;;;;;;;8.77;2.45;;;22.10;52.40;;;;;;5133948;28;20052;-61
2021/12/14 13:16:50;;;;;;;14.80;2.55;;;22.10;52.60;;;;;;5147622;28;20056;-63
2021/12/14 13:19:29;;;;;;;13.68;2.20;;;22.10;52.70;;;;;;5133456;28;20306;-62
2021/12/14 13:22:05;;;;;;;10.90;2.10;;;22.10;53.00;;;;;;5128661;28;20544;-62
2021/12/14 13:24:40;;;;;;;8.45;2.03;;;22.10;53.30;;;;;;5123399;28;20045;-62
2021/12/14 13:27:21;;;;;;;12.90;2.30;;;22.20;53.60;;;;;;5127954;28;20049;-61
2021/12/14 13:30:05;;;;;;;20.13;2.50;;;22.20;53.90;;;;;;5131109;28;20045;-60
2021/12/14 13:32:38;;;;;;;;;;;22.20;53.90;;;;;;5122881;28;20056;-61
2021/12/14 13:35:19;;;;;;;12.15;1.83;;;22.20;54.40;;;;;;5127407;28;19929;-63
2021/12/14 13:38:06;;;;;;;15.50;1.98;;;22.20;54.30;;;;;;5111897;28;20326;-60
2021/12/14 13:40:43;;;;;;;12.15;2.58;;;22.20;54.90;;;;;;5118037;28;20057;-60
2021/12/14 13:43:19;;;;;;;6.28;1.85;;;22.20;55.00;;;;;;5109163;28;20057;-61
2021/12/14 13:45:58;;;;;;;13.88;1.83;;;22.30;55.20;;;;;;5102991;28;21860;-62
2021/12/14 13:48:38;;;;;;;7.93;1.98;;;22.30;55.30;;;;;;5126937;28;20052;-59
2021/12/14 13:51:14;;;;;;;16.00;2.03;;;22.30;55.10;;;;;;5133623;28;20046;-62
2021/12/14 13:53:48;;;;;;;4.72;1.67;;;22.40;55.10;;;;;;5131932;28;20798;-60
2021/12/14 13:56:28;;;;;;;11.90;2.45;;;22.30;54.90;;;;;;5122065;28;20041;-64
2021/12/14 13:59:02;;;;;;;10.15;3.88;;;22.40;54.10;;;;;;5127698;28;20425;-62
2021/12/14 14:01:41;;;;;;;8.00;2.90;;;22.30;52.20;;;;;;5132352;28;20072;-64
2021/12/14 14:04:18;;;;;;;7.55;3.55;;;22.30;51.00;;;;;;5141825;28;20076;-59
2021/12/14 14:06:52;;;;;;;6.03;3.72;;;22.20;50.90;;;;;;5152333;28;20057;-64
2021/12/14 14:09:28;;;;;;;8.75;3.00;;;22.20;50.30;;;;;;5146147;28;20626;-70
2021/12/14 14:12:11;;;;;;;12.10;2.90;;;22.10;51.70;;;;;;5146212;28;20050;-61
2021/12/14 14:14:44;;;;;;;6.65;2.78;;;22.10;50.60;;;;;;5143793;28;20052;-61
2021/12/14 14:17:29;;;;;;;12.53;2.87;;;22.00;50.30;;;;;;5152985;28;20056;-62
2021/12/14 14:20:08;;;;;;;5.28;2.72;;;21.90;51.70;;;;;;5129395;28;20068;-64
2021/12/14 14:22:41;;;;;;;5.60;2.35;;;21.90;52.40;;;;;;5133125;28;20071;-65
2021/12/14 14:25:22;;;;;;;13.43;2.43;;;22.00;52.90;;;;;;5142002;28;20053;-64
2021/12/14 14:28:02;;;;;;;6.15;1.92;;;22.00;53.00;;;;;;5148887;28;20050;-60
2021/12/14 14:30:39;;;;;;;8.15;2.45;;;22.00;53.70;;;;;;5145693;28;20046;-61